sensor_id;sensor_type;location;lat;lon;timestamp;P1;durP1;ratioP1;P2;durP2;ratioP2
7813;SDS011;3952;48.364;16.022;2023-05-16T00:00:12;3.83;;;3.63;;
7813;SDS011;3952;48.364;16.022;2023-05-16T00:02:40;4.40;;;4.20;;
7813;SDS011;3952;48.364;16.022;2023-05-16T00:05:09;4.60;;;4.40;;
7813;SDS011;3952;48.364;16.022;2023-05-16T00:07:40;4.90;;;4.60;;
7813;SDS011;3952;48.364;16.022;2023-05-16T00:10:08;4.53;;;4.30;;
7813;SDS011;3952;48.364;16.022;2023-05-16T00:12:36;4.83;;;4.53;;
7813;SDS011;3952;48.364;16.022;2023-05-16T00:15:04;4.60;;;4.30;;
7813;SDS011;3952;48.364;16.022;2023-05-16T00:17:34;4.57;;;4.27;;
7813;SDS011;3952;48.364;16.022;2023-05-16T00:20:01;5.00;;;4.60;;
7813;SDS011;3952;48.364;16.022;2023-05-16T00:22:36;5.03;;;4.73;;
7813;SDS011;3952;48.364;16.022;2023-05-16T00:25:04;4.57;;;4.33;;
7813;SDS011;3952;48.364;16.022;2023-05-16T00:27:33;4.80;;;4.60;;
7813;SDS011;3952;48.364;16.022;2023-05-16T00:30:00;4.93;;;4.73;;
7813;SDS011;3952;48.364;16.022;2023-05-16T00:32:28;4.93;;;4.63;;
7813;SDS011;3952;48.364;16.022;2023-05-16T00:34:55;4.90;;;4.70;;
7813;SDS011;3952;48.364;16.022;2023-05-16T00:37:22;5.40;;;5.10;;
7813;SDS011;3952;48.364;16.022;2023-05-16T00:39:51;5.33;;;4.93;;
7813;SDS011;3952;48.364;16.022;2023-05-16T00:42:18;5.30;;;5.00;;
7813;SDS011;3952;48.364;16.022;2023-05-16T00:44:46;5.40;;;4.77;;
7813;SDS011;3952;48.364;16.022;2023-05-16T00:47:13;5.90;;;5.50;;
7813;SDS011;3952;48.364;16.022;2023-05-16T00:49:40;5.33;;;5.03;;
7813;SDS011;3952;48.364;16.022;2023-05-16T00:52:07;5.40;;;5.03;;
7813;SDS011;3952;48.364;16.022;2023-05-16T00:54:35;6.77;;;4.60;;
7813;SDS011;3952;48.364;16.022;2023-05-16T00:57:04;5.60;;;5.10;;
7813;SDS011;3952;48.364;16.022;2023-05-16T00:59:32;5.60;;;5.30;;
7813;SDS011;3952;48.364;16.022;2023-05-16T01:02:00;5.30;;;5.00;;
7813;SDS011;3952;48.364;16.022;2023-05-16T01:04:27;5.90;;;5.30;;
7813;SDS011;3952;48.364;16.022;2023-05-16T01:06:56;5.30;;;5.00;;
7813;SDS011;3952;48.364;16.022;2023-05-16T01:09:23;4.90;;;4.40;;
7813;SDS011;3952;48.364;16.022;2023-05-16T01:11:51;5.77;;;5.37;;
7813;SDS011;3952;48.364;16.022;2023-05-16T01:14:28;5.37;;;5.03;;
7813;SDS011;3952;48.364;16.022;2023-05-16T01:17:04;4.83;;;4.53;;
7813;SDS011;3952;48.364;16.022;2023-05-16T01:19:43;6.10;;;5.70;;
7813;SDS011;3952;48.364;16.022;2023-05-16T01:22:26;4.97;;;4.67;;
7813;SDS011;3952;48.364;16.022;2023-05-16T01:25:04;4.53;;;4.33;;
7813;SDS011;3952;48.364;16.022;2023-05-16T01:27:36;4.90;;;4.60;;
7813;SDS011;3952;48.364;16.022;2023-05-16T01:30:14;4.57;;;4.27;;
7813;SDS011;3952;48.364;16.022;2023-05-16T01:32:43;5.03;;;4.73;;
7813;SDS011;3952;48.364;16.022;2023-05-16T01:35:12;5.23;;;4.47;;
7813;SDS011;3952;48.364;16.022;2023-05-16T01:37:42;5.03;;;4.57;;
7813;SDS011;3952;48.364;16.022;2023-05-16T01:40:17;5.17;;;4.87;;
7813;SDS011;3952;48.364;16.022;2023-05-16T01:42:52;5.10;;;4.80;;
7813;SDS011;3952;48.364;16.022;2023-05-16T01:45:22;5.17;;;4.87;;
7813;SDS011;3952;48.364;16.022;2023-05-16T01:47:54;5.40;;;4.90;;
7813;SDS011;3952;48.364;16.022;2023-05-16T01:50:26;5.33;;;5.03;;
7813;SDS011;3952;48.364;16.022;2023-05-16T01:52:58;5.60;;;5.20;;
7813;SDS011;3952;48.364;16.022;2023-05-16T01:55:33;4.77;;;4.53;;
7813;SDS011;3952;48.364;16.022;2023-05-16T01:58:06;4.97;;;4.67;;
7813;SDS011;3952;48.364;16.022;2023-05-16T02:00:35;5.03;;;4.73;;
7813;SDS011;3952;48.364;16.022;2023-05-16T02:03:04;5.20;;;4.70;;
7813;SDS011;3952;48.364;16.022;2023-05-16T02:05:31;5.13;;;4.80;;
7813;SDS011;3952;48.364;16.022;2023-05-16T02:07:59;4.67;;;4.47;;
7813;SDS011;3952;48.364;16.022;2023-05-16T02:10:26;5.17;;;4.97;;
7813;SDS011;3952;48.364;16.022;2023-05-16T02:12:53;6.03;;;5.43;;
7813;SDS011;3952;48.364;16.022;2023-05-16T02:15:22;5.60;;;5.30;;
7813;SDS011;3952;48.364;16.022;2023-05-16T02:17:49;5.50;;;5.20;;
7813;SDS011;3952;48.364;16.022;2023-05-16T02:20:16;5.83;;;5.53;;
7813;SDS011;3952;48.364;16.022;2023-05-16T02:22:43;6.07;;;5.77;;
7813;SDS011;3952;48.364;16.022;2023-05-16T02:25:14;5.87;;;5.37;;
7813;SDS011;3952;48.364;16.022;2023-05-16T02:27:41;6.13;;;5.73;;
7813;SDS011;3952;48.364;16.022;2023-05-16T02:30:09;6.03;;;5.63;;
7813;SDS011;3952;48.364;16.022;2023-05-16T02:32:38;6.90;;;6.40;;
7813;SDS011;3952;48.364;16.022;2023-05-16T02:35:09;6.53;;;6.13;;
7813;SDS011;3952;48.364;16.022;2023-05-16T02:37:36;7.13;;;6.67;;
7813;SDS011;3952;48.364;16.022;2023-05-16T02:40:04;7.37;;;6.87;;
7813;SDS011;3952;48.364;16.022;2023-05-16T02:42:33;7.70;;;7.20;;
7813;SDS011;3952;48.364;16.022;2023-05-16T02:45:00;8.40;;;7.80;;
7813;SDS011;3952;48.364;16.022;2023-05-16T02:47:27;9.70;;;9.00;;
7813;SDS011;3952;48.364;16.022;2023-05-16T02:49:56;10.23;;;9.37;;
7813;SDS011;3952;48.364;16.022;2023-05-16T02:52:23;8.77;;;8.20;;
7813;SDS011;3952;48.364;16.022;2023-05-16T02:54:50;8.00;;;7.43;;
7813;SDS011;3952;48.364;16.022;2023-05-16T02:57:17;9.00;;;8.40;;
7813;SDS011;3952;48.364;16.022;2023-05-16T02:59:44;9.30;;;8.80;;
7813;SDS011;3952;48.364;16.022;2023-05-16T03:02:12;7.90;;;7.33;;
7813;SDS011;3952;48.364;16.022;2023-05-16T03:04:39;8.20;;;7.70;;
7813;SDS011;3952;48.364;16.022;2023-05-16T03:07:07;9.93;;;9.10;;
7813;SDS011;3952;48.364;16.022;2023-05-16T03:09:34;9.10;;;8.53;;
7813;SDS011;3952;48.364;16.022;2023-05-16T03:12:02;13.90;;;12.77;;
7813;SDS011;3952;48.364;16.022;2023-05-16T03:14:29;17.80;;;16.20;;
7813;SDS011;3952;48.364;16.022;2023-05-16T03:16:56;21.73;;;18.20;;
7813;SDS011;3952;48.364;16.022;2023-05-16T03:19:24;19.00;;;17.13;;
7813;SDS011;3952;48.364;16.022;2023-05-16T03:21:51;20.63;;;18.67;;
7813;SDS011;3952;48.364;16.022;2023-05-16T03:24:19;17.63;;;16.03;;
7813;SDS011;3952;48.364;16.022;2023-05-16T03:26:47;13.80;;;12.80;;
7813;SDS011;3952;48.364;16.022;2023-05-16T03:29:14;14.77;;;13.57;;
7813;SDS011;3952;48.364;16.022;2023-05-16T03:31:41;12.97;;;11.97;;
7813;SDS011;3952;48.364;16.022;2023-05-16T03:34:08;9.33;;;8.77;;
7813;SDS011;3952;48.364;16.022;2023-05-16T03:36:37;8.07;;;7.60;;
7813;SDS011;3952;48.364;16.022;2023-05-16T03:39:04;9.43;;;8.73;;
7813;SDS011;3952;48.364;16.022;2023-05-16T03:41:34;8.30;;;7.63;;
7813;SDS011;3952;48.364;16.022;2023-05-16T03:44:01;8.60;;;8.10;;
7813;SDS011;3952;48.364;16.022;2023-05-16T03:46:28;8.60;;;8.10;;
7813;SDS011;3952;48.364;16.022;2023-05-16T03:48:55;8.87;;;8.27;;
7813;SDS011;3952;48.364;16.022;2023-05-16T03:51:22;8.60;;;7.90;;
7813;SDS011;3952;48.364;16.022;2023-05-16T03:53:50;8.40;;;7.90;;
7813;SDS011;3952;48.364;16.022;2023-05-16T03:56:17;8.73;;;8.23;;
7813;SDS011;3952;48.364;16.022;2023-05-16T03:58:47;9.07;;;8.50;;
7813;SDS011;3952;48.364;16.022;2023-05-16T04:01:14;9.07;;;8.40;;
7813;SDS011;3952;48.364;16.022;2023-05-16T04:03:41;10.30;;;9.33;;
7813;SDS011;3952;48.364;16.022;2023-05-16T04:06:08;9.97;;;9.33;;
7813;SDS011;3952;48.364;16.022;2023-05-16T04:08:36;9.67;;;8.90;;
7813;SDS011;3952;48.364;16.022;2023-05-16T04:11:05;11.30;;;10.23;;
7813;SDS011;3952;48.364;16.022;2023-05-16T04:13:32;10.17;;;9.57;;
7813;SDS011;3952;48.364;16.022;2023-05-16T04:16:00;10.37;;;9.67;;
7813;SDS011;3952;48.364;16.022;2023-05-16T04:18:28;9.67;;;9.10;;
7813;SDS011;3952;48.364;16.022;2023-05-16T04:20:55;9.33;;;8.63;;
7813;SDS011;3952;48.364;16.022;2023-05-16T04:23:22;10.43;;;9.73;;
7813;SDS011;3952;48.364;16.022;2023-05-16T04:25:49;10.53;;;9.60;;
7813;SDS011;3952;48.364;16.022;2023-05-16T04:28:16;10.90;;;10.20;;
7813;SDS011;3952;48.364;16.022;2023-05-16T04:30:44;10.43;;;9.83;;
7813;SDS011;3952;48.364;16.022;2023-05-16T04:33:13;10.27;;;9.67;;
7813;SDS011;3952;48.364;16.022;2023-05-16T04:35:40;10.23;;;9.63;;
7813;SDS011;3952;48.364;16.022;2023-05-16T04:38:08;10.57;;;9.87;;
7813;SDS011;3952;48.364;16.022;2023-05-16T04:40:35;10.27;;;9.60;;
7813;SDS011;3952;48.364;16.022;2023-05-16T04:43:02;10.17;;;9.57;;
7813;SDS011;3952;48.364;16.022;2023-05-16T04:45:30;10.23;;;9.53;;
7813;SDS011;3952;48.364;16.022;2023-05-16T04:47:59;9.90;;;9.30;;
7813;SDS011;3952;48.364;16.022;2023-05-16T04:50:28;10.57;;;9.67;;
7813;SDS011;3952;48.364;16.022;2023-05-16T04:52:55;9.77;;;9.20;;
7813;SDS011;3952;48.364;16.022;2023-05-16T04:55:22;9.80;;;9.10;;
7813;SDS011;3952;48.364;16.022;2023-05-16T04:57:49;10.10;;;9.40;;
7813;SDS011;3952;48.364;16.022;2023-05-16T05:00:17;10.47;;;9.77;;
7813;SDS011;3952;48.364;16.022;2023-05-16T05:02:44;10.17;;;9.57;;
7813;SDS011;3952;48.364;16.022;2023-05-16T05:05:11;10.90;;;10.00;;
7813;SDS011;3952;48.364;16.022;2023-05-16T05:07:40;9.90;;;9.30;;
7813;SDS011;3952;48.364;16.022;2023-05-16T05:10:08;9.20;;;8.70;;
7813;SDS011;3952;48.364;16.022;2023-05-16T05:12:36;9.53;;;9.00;;
7813;SDS011;3952;48.364;16.022;2023-05-16T05:15:03;10.33;;;9.57;;
7813;SDS011;3952;48.364;16.022;2023-05-16T05:17:31;9.57;;;8.97;;
7813;SDS011;3952;48.364;16.022;2023-05-16T05:19:58;10.37;;;9.67;;
7813;SDS011;3952;48.364;16.022;2023-05-16T05:22:26;10.70;;;9.97;;
7813;SDS011;3952;48.364;16.022;2023-05-16T05:24:54;10.83;;;10.23;;
7813;SDS011;3952;48.364;16.022;2023-05-16T05:27:22;10.83;;;10.13;;
7813;SDS011;3952;48.364;16.022;2023-05-16T05:29:49;10.67;;;9.93;;
7813;SDS011;3952;48.364;16.022;2023-05-16T05:32:16;10.90;;;10.20;;
7813;SDS011;3952;48.364;16.022;2023-05-16T05:34:43;11.37;;;10.27;;
7813;SDS011;3952;48.364;16.022;2023-05-16T05:37:11;13.17;;;10.40;;
7813;SDS011;3952;48.364;16.022;2023-05-16T05:39:38;11.87;;;10.20;;
7813;SDS011;3952;48.364;16.022;2023-05-16T05:42:07;11.50;;;10.60;;
7813;SDS011;3952;48.364;16.022;2023-05-16T05:44:34;10.80;;;9.73;;
7813;SDS011;3952;48.364;16.022;2023-05-16T05:47:02;12.17;;;10.00;;
7813;SDS011;3952;48.364;16.022;2023-05-16T05:49:30;10.43;;;9.67;;
7813;SDS011;3952;48.364;16.022;2023-05-16T05:51:57;10.90;;;9.90;;
7813;SDS011;3952;48.364;16.022;2023-05-16T05:54:24;11.43;;;10.30;;
7813;SDS011;3952;48.364;16.022;2023-05-16T05:56:52;11.53;;;10.43;;
7813;SDS011;3952;48.364;16.022;2023-05-16T05:59:21;12.77;;;10.40;;
7813;SDS011;3952;48.364;16.022;2023-05-16T06:01:48;12.17;;;10.80;;
7813;SDS011;3952;48.364;16.022;2023-05-16T06:04:17;10.97;;;10.03;;
7813;SDS011;3952;48.364;16.022;2023-05-16T06:06:44;11.60;;;10.57;;
7813;SDS011;3952;48.364;16.022;2023-05-16T06:09:11;13.80;;;11.03;;
7813;SDS011;3952;48.364;16.022;2023-05-16T06:11:39;11.00;;;10.00;;
7813;SDS011;3952;48.364;16.022;2023-05-16T06:14:06;10.53;;;9.73;;
7813;SDS011;3952;48.364;16.022;2023-05-16T06:16:35;11.53;;;10.73;;
7813;SDS011;3952;48.364;16.022;2023-05-16T06:19:03;10.47;;;9.77;;
7813;SDS011;3952;48.364;16.022;2023-05-16T06:21:30;10.60;;;9.80;;
7813;SDS011;3952;48.364;16.022;2023-05-16T06:23:58;10.60;;;9.67;;
7813;SDS011;3952;48.364;16.022;2023-05-16T06:26:25;10.70;;;10.00;;
7813;SDS011;3952;48.364;16.022;2023-05-16T06:28:52;10.67;;;9.87;;
7813;SDS011;3952;48.364;16.022;2023-05-16T06:31:19;9.63;;;9.03;;
7813;SDS011;3952;48.364;16.022;2023-05-16T06:33:48;10.47;;;9.77;;
7813;SDS011;3952;48.364;16.022;2023-05-16T06:36:15;9.63;;;9.03;;
7813;SDS011;3952;48.364;16.022;2023-05-16T06:38:42;9.97;;;9.27;;
7813;SDS011;3952;48.364;16.022;2023-05-16T06:41:09;9.10;;;8.60;;
7813;SDS011;3952;48.364;16.022;2023-05-16T06:43:36;9.30;;;8.60;;
7813;SDS011;3952;48.364;16.022;2023-05-16T06:46:04;8.70;;;8.20;;
7813;SDS011;3952;48.364;16.022;2023-05-16T06:48:31;8.47;;;7.97;;
7813;SDS011;3952;48.364;16.022;2023-05-16T06:50:59;9.70;;;9.00;;
7813;SDS011;3952;48.364;16.022;2023-05-16T06:53:27;9.57;;;8.97;;
7813;SDS011;3952;48.364;16.022;2023-05-16T06:55:54;9.13;;;8.43;;
7813;SDS011;3952;48.364;16.022;2023-05-16T06:58:21;8.50;;;8.00;;
7813;SDS011;3952;48.364;16.022;2023-05-16T07:00:49;8.50;;;8.00;;
7813;SDS011;3952;48.364;16.022;2023-05-16T07:03:16;8.60;;;8.10;;
7813;SDS011;3952;48.364;16.022;2023-05-16T07:05:43;9.00;;;8.40;;
7813;SDS011;3952;48.364;16.022;2023-05-16T07:08:12;8.40;;;7.90;;
7813;SDS011;3952;48.364;16.022;2023-05-16T07:10:39;8.30;;;7.77;;
7813;SDS011;3952;48.364;16.022;2023-05-16T07:13:07;8.40;;;7.87;;
7813;SDS011;3952;48.364;16.022;2023-05-16T07:15:34;7.50;;;6.83;;
7813;SDS011;3952;48.364;16.022;2023-05-16T07:18:01;7.53;;;7.03;;
7813;SDS011;3952;48.364;16.022;2023-05-16T07:20:29;8.13;;;7.63;;
7813;SDS011;3952;48.364;16.022;2023-05-16T07:22:56;6.87;;;6.50;;
7813;SDS011;3952;48.364;16.022;2023-05-16T07:25:25;6.53;;;6.23;;
7813;SDS011;3952;48.364;16.022;2023-05-16T07:27:52;6.83;;;6.43;;
7813;SDS011;3952;48.364;16.022;2023-05-16T07:30:20;6.97;;;6.57;;
7813;SDS011;3952;48.364;16.022;2023-05-16T07:32:48;7.30;;;6.90;;
7813;SDS011;3952;48.364;16.022;2023-05-16T07:35:15;7.57;;;7.07;;
7813;SDS011;3952;48.364;16.022;2023-05-16T07:37:42;7.60;;;7.10;;
7813;SDS011;3952;48.364;16.022;2023-05-16T07:40:10;7.10;;;6.70;;
7813;SDS011;3952;48.364;16.022;2023-05-16T07:42:40;7.20;;;6.70;;
7813;SDS011;3952;48.364;16.022;2023-05-16T07:45:07;6.27;;;5.97;;
7813;SDS011;3952;48.364;16.022;2023-05-16T07:47:35;6.13;;;5.83;;
7813;SDS011;3952;48.364;16.022;2023-05-16T07:50:03;5.97;;;5.63;;
7813;SDS011;3952;48.364;16.022;2023-05-16T07:52:31;5.87;;;5.40;;
7813;SDS011;3952;48.364;16.022;2023-05-16T07:54:58;6.00;;;5.63;;
7813;SDS011;3952;48.364;16.022;2023-05-16T07:57:26;5.87;;;5.57;;
7813;SDS011;3952;48.364;16.022;2023-05-16T07:59:55;6.37;;;5.93;;
7813;SDS011;3952;48.364;16.022;2023-05-16T08:02:22;5.90;;;5.60;;
7813;SDS011;3952;48.364;16.022;2023-05-16T08:04:54;5.70;;;5.30;;
7813;SDS011;3952;48.364;16.022;2023-05-16T08:07:22;5.70;;;5.40;;
7813;SDS011;3952;48.364;16.022;2023-05-16T08:09:49;5.80;;;5.10;;
7813;SDS011;3952;48.364;16.022;2023-05-16T08:12:17;5.33;;;5.03;;
7813;SDS011;3952;48.364;16.022;2023-05-16T08:14:44;5.13;;;4.83;;
7813;SDS011;3952;48.364;16.022;2023-05-16T08:17:12;5.27;;;4.97;;
7813;SDS011;3952;48.364;16.022;2023-05-16T08:19:40;5.83;;;5.43;;
7813;SDS011;3952;48.364;16.022;2023-05-16T08:22:07;5.33;;;5.03;;
7813;SDS011;3952;48.364;16.022;2023-05-16T08:24:35;4.77;;;4.57;;
7813;SDS011;3952;48.364;16.022;2023-05-16T08:27:02;4.93;;;4.40;;
7813;SDS011;3952;48.364;16.022;2023-05-16T08:29:29;4.10;;;3.90;;
7813;SDS011;3952;48.364;16.022;2023-05-16T08:31:57;4.13;;;3.93;;
7813;SDS011;3952;48.364;16.022;2023-05-16T08:34:25;4.50;;;4.13;;
7813;SDS011;3952;48.364;16.022;2023-05-16T08:36:53;5.10;;;4.60;;
7813;SDS011;3952;48.364;16.022;2023-05-16T08:39:20;4.53;;;4.23;;
7813;SDS011;3952;48.364;16.022;2023-05-16T08:41:47;4.13;;;3.93;;
7813;SDS011;3952;48.364;16.022;2023-05-16T08:44:15;4.73;;;4.53;;
7813;SDS011;3952;48.364;16.022;2023-05-16T08:46:47;5.50;;;5.10;;
7813;SDS011;3952;48.364;16.022;2023-05-16T08:49:17;5.07;;;4.83;;
7813;SDS011;3952;48.364;16.022;2023-05-16T08:51:47;5.70;;;5.40;;
7813;SDS011;3952;48.364;16.022;2023-05-16T08:54:16;5.63;;;5.13;;
7813;SDS011;3952;48.364;16.022;2023-05-16T08:56:44;5.73;;;5.27;;
7813;SDS011;3952;48.364;16.022;2023-05-16T08:59:12;5.93;;;5.63;;
7813;SDS011;3952;48.364;16.022;2023-05-16T09:01:39;6.50;;;6.10;;
7813;SDS011;3952;48.364;16.022;2023-05-16T09:04:07;5.73;;;5.40;;
7813;SDS011;3952;48.364;16.022;2023-05-16T09:06:35;5.03;;;4.73;;
7813;SDS011;3952;48.364;16.022;2023-05-16T09:09:04;5.87;;;5.47;;
7813;SDS011;3952;48.364;16.022;2023-05-16T09:11:32;5.40;;;5.10;;
7813;SDS011;3952;48.364;16.022;2023-05-16T09:14:00;6.83;;;6.30;;
7813;SDS011;3952;48.364;16.022;2023-05-16T09:16:27;5.83;;;5.53;;
7813;SDS011;3952;48.364;16.022;2023-05-16T09:18:54;5.97;;;5.67;;
7813;SDS011;3952;48.364;16.022;2023-05-16T09:21:26;6.13;;;5.73;;
7813;SDS011;3952;48.364;16.022;2023-05-16T09:23:56;6.17;;;5.77;;
7813;SDS011;3952;48.364;16.022;2023-05-16T09:26:30;6.17;;;5.77;;
7813;SDS011;3952;48.364;16.022;2023-05-16T09:28:58;5.87;;;5.47;;
7813;SDS011;3952;48.364;16.022;2023-05-16T09:31:26;5.80;;;5.50;;
7813;SDS011;3952;48.364;16.022;2023-05-16T09:34:00;6.47;;;6.03;;
7813;SDS011;3952;48.364;16.022;2023-05-16T09:36:28;6.20;;;5.80;;
7813;SDS011;3952;48.364;16.022;2023-05-16T09:38:57;6.10;;;5.73;;
7813;SDS011;3952;48.364;16.022;2023-05-16T09:41:25;7.20;;;6.60;;
7813;SDS011;3952;48.364;16.022;2023-05-16T09:43:54;6.50;;;6.20;;
7813;SDS011;3952;48.364;16.022;2023-05-16T09:46:24;7.40;;;6.90;;
7813;SDS011;3952;48.364;16.022;2023-05-16T09:48:52;7.10;;;6.70;;
7813;SDS011;3952;48.364;16.022;2023-05-16T09:51:21;8.00;;;7.40;;
7813;SDS011;3952;48.364;16.022;2023-05-16T09:53:48;7.60;;;7.00;;
7813;SDS011;3952;48.364;16.022;2023-05-16T09:56:15;7.37;;;6.87;;
7813;SDS011;3952;48.364;16.022;2023-05-16T09:58:44;7.73;;;7.23;;
7813;SDS011;3952;48.364;16.022;2023-05-16T10:01:13;8.17;;;7.57;;
7813;SDS011;3952;48.364;16.022;2023-05-16T10:03:42;9.30;;;8.07;;
7813;SDS011;3952;48.364;16.022;2023-05-16T10:06:09;9.67;;;8.70;;
7813;SDS011;3952;48.364;16.022;2023-05-16T10:08:38;10.27;;;9.23;;
7813;SDS011;3952;48.364;16.022;2023-05-16T10:11:08;9.67;;;8.77;;
7813;SDS011;3952;48.364;16.022;2023-05-16T10:13:37;9.00;;;8.50;;
7813;SDS011;3952;48.364;16.022;2023-05-16T10:16:06;9.53;;;8.77;;
7813;SDS011;3952;48.364;16.022;2023-05-16T10:18:37;9.67;;;8.97;;
7813;SDS011;3952;48.364;16.022;2023-05-16T10:21:06;10.17;;;9.40;;
7813;SDS011;3952;48.364;16.022;2023-05-16T10:23:35;10.07;;;9.37;;
7813;SDS011;3952;48.364;16.022;2023-05-16T10:26:06;10.53;;;9.50;;
7813;SDS011;3952;48.364;16.022;2023-05-16T10:28:35;10.17;;;9.53;;
7813;SDS011;3952;48.364;16.022;2023-05-16T10:31:03;10.00;;;9.07;;
7813;SDS011;3952;48.364;16.022;2023-05-16T10:33:31;11.17;;;10.23;;
7813;SDS011;3952;48.364;16.022;2023-05-16T10:36:01;11.53;;;10.60;;
7813;SDS011;3952;48.364;16.022;2023-05-16T10:38:29;14.77;;;11.63;;
7813;SDS011;3952;48.364;16.022;2023-05-16T10:40:57;11.20;;;10.40;;
7813;SDS011;3952;48.364;16.022;2023-05-16T10:43:25;14.00;;;12.80;;
7813;SDS011;3952;48.364;16.022;2023-05-16T10:45:54;14.57;;;13.47;;
7813;SDS011;3952;48.364;16.022;2023-05-16T10:48:29;14.83;;;13.53;;
7813;SDS011;3952;48.364;16.022;2023-05-16T10:50:57;15.03;;;13.60;;
7813;SDS011;3952;48.364;16.022;2023-05-16T10:53:29;14.97;;;13.77;;
7813;SDS011;3952;48.364;16.022;2023-05-16T10:56:08;15.07;;;13.67;;
7813;SDS011;3952;48.364;16.022;2023-05-16T10:58:40;14.80;;;13.50;;
7813;SDS011;3952;48.364;16.022;2023-05-16T11:01:18;14.83;;;13.47;;
7813;SDS011;3952;48.364;16.022;2023-05-16T11:04:09;14.43;;;13.17;;
7813;SDS011;3952;48.364;16.022;2023-05-16T11:06:43;13.80;;;12.63;;
7813;SDS011;3952;48.364;16.022;2023-05-16T11:09:20;13.60;;;12.60;;
7813;SDS011;3952;48.364;16.022;2023-05-16T11:11:53;13.83;;;12.50;;
7813;SDS011;3952;48.364;16.022;2023-05-16T11:14:25;14.20;;;12.90;;
7813;SDS011;3952;48.364;16.022;2023-05-16T11:17:00;14.03;;;12.97;;
7813;SDS011;3952;48.364;16.022;2023-05-16T11:19:29;13.00;;;12.00;;
7813;SDS011;3952;48.364;16.022;2023-05-16T11:22:05;12.97;;;12.07;;
7813;SDS011;3952;48.364;16.022;2023-05-16T11:24:37;13.83;;;12.73;;
7813;SDS011;3952;48.364;16.022;2023-05-16T11:27:05;14.47;;;12.60;;
7813;SDS011;3952;48.364;16.022;2023-05-16T11:29:33;14.43;;;13.13;;
7813;SDS011;3952;48.364;16.022;2023-05-16T11:32:02;16.50;;;12.13;;
7813;SDS011;3952;48.364;16.022;2023-05-16T11:34:30;14.63;;;13.10;;
7813;SDS011;3952;48.364;16.022;2023-05-16T11:37:01;13.23;;;12.03;;
7813;SDS011;3952;48.364;16.022;2023-05-16T11:39:29;12.63;;;11.73;;
7813;SDS011;3952;48.364;16.022;2023-05-16T11:41:59;13.00;;;12.00;;
7813;SDS011;3952;48.364;16.022;2023-05-16T11:44:26;12.17;;;11.23;;
7813;SDS011;3952;48.364;16.022;2023-05-16T11:46:53;12.00;;;11.30;;
7813;SDS011;3952;48.364;16.022;2023-05-16T11:49:21;12.30;;;11.40;;
7813;SDS011;3952;48.364;16.022;2023-05-16T11:51:48;12.03;;;11.17;;
7813;SDS011;3952;48.364;16.022;2023-05-16T11:54:16;12.13;;;11.17;;
7813;SDS011;3952;48.364;16.022;2023-05-16T11:56:44;12.33;;;11.40;;
7813;SDS011;3952;48.364;16.022;2023-05-16T11:59:13;12.93;;;11.87;;
7813;SDS011;3952;48.364;16.022;2023-05-16T12:01:41;11.80;;;11.00;;
7813;SDS011;3952;48.364;16.022;2023-05-16T12:04:08;11.20;;;10.50;;
7813;SDS011;3952;48.364;16.022;2023-05-16T12:06:36;11.87;;;11.07;;
7813;SDS011;3952;48.364;16.022;2023-05-16T12:09:04;11.23;;;10.53;;
7813;SDS011;3952;48.364;16.022;2023-05-16T12:11:35;10.33;;;9.73;;
7813;SDS011;3952;48.364;16.022;2023-05-16T12:14:03;10.77;;;9.80;;
7813;SDS011;3952;48.364;16.022;2023-05-16T12:16:32;10.90;;;10.30;;
7813;SDS011;3952;48.364;16.022;2023-05-16T12:19:01;11.60;;;10.90;;
7813;SDS011;3952;48.364;16.022;2023-05-16T12:21:29;11.57;;;10.77;;
7813;SDS011;3952;48.364;16.022;2023-05-16T12:23:56;10.53;;;9.93;;
7813;SDS011;3952;48.364;16.022;2023-05-16T12:26:25;11.63;;;10.83;;
7813;SDS011;3952;48.364;16.022;2023-05-16T12:28:55;12.20;;;11.20;;
7813;SDS011;3952;48.364;16.022;2023-05-16T12:31:25;11.87;;;11.07;;
7813;SDS011;3952;48.364;16.022;2023-05-16T12:33:53;11.93;;;11.13;;
7813;SDS011;3952;48.364;16.022;2023-05-16T12:36:21;11.17;;;10.57;;
7813;SDS011;3952;48.364;16.022;2023-05-16T12:38:50;13.47;;;12.50;;
7813;SDS011;3952;48.364;16.022;2023-05-16T12:41:19;12.70;;;11.63;;
7813;SDS011;3952;48.364;16.022;2023-05-16T12:43:47;11.90;;;11.17;;
7813;SDS011;3952;48.364;16.022;2023-05-16T12:46:15;12.63;;;11.77;;
7813;SDS011;3952;48.364;16.022;2023-05-16T12:48:45;12.17;;;11.47;;
7813;SDS011;3952;48.364;16.022;2023-05-16T12:51:14;12.30;;;11.60;;
7813;SDS011;3952;48.364;16.022;2023-05-16T12:53:42;12.40;;;11.70;;
7813;SDS011;3952;48.364;16.022;2023-05-16T12:56:11;13.00;;;12.10;;
7813;SDS011;3952;48.364;16.022;2023-05-16T12:58:39;12.90;;;12.10;;
7813;SDS011;3952;48.364;16.022;2023-05-16T13:01:07;11.73;;;11.03;;
7813;SDS011;3952;48.364;16.022;2023-05-16T13:03:34;12.13;;;11.37;;
7813;SDS011;3952;48.364;16.022;2023-05-16T13:06:01;12.90;;;12.10;;
7813;SDS011;3952;48.364;16.022;2023-05-16T13:08:31;11.70;;;10.97;;
7813;SDS011;3952;48.364;16.022;2023-05-16T13:10:59;11.60;;;11.00;;
7813;SDS011;3952;48.364;16.022;2023-05-16T13:13:26;12.17;;;11.37;;
7813;SDS011;3952;48.364;16.022;2023-05-16T13:15:53;12.27;;;11.47;;
7813;SDS011;3952;48.364;16.022;2023-05-16T13:18:20;12.20;;;11.40;;
7813;SDS011;3952;48.364;16.022;2023-05-16T13:20:47;13.30;;;12.30;;
7813;SDS011;3952;48.364;16.022;2023-05-16T13:23:15;12.13;;;11.43;;
7813;SDS011;3952;48.364;16.022;2023-05-16T13:25:43;13.00;;;12.10;;
7813;SDS011;3952;48.364;16.022;2023-05-16T13:28:11;13.20;;;12.30;;
7813;SDS011;3952;48.364;16.022;2023-05-16T13:30:38;13.50;;;12.60;;
7813;SDS011;3952;48.364;16.022;2023-05-16T13:33:05;14.03;;;13.07;;
7813;SDS011;3952;48.364;16.022;2023-05-16T13:35:33;14.43;;;13.33;;
7813;SDS011;3952;48.364;16.022;2023-05-16T13:38:00;13.40;;;12.50;;
7813;SDS011;3952;48.364;16.022;2023-05-16T13:40:27;14.00;;;13.00;;
7813;SDS011;3952;48.364;16.022;2023-05-16T13:42:56;14.03;;;13.03;;
7813;SDS011;3952;48.364;16.022;2023-05-16T13:45:25;13.97;;;13.07;;
7813;SDS011;3952;48.364;16.022;2023-05-16T13:47:52;13.80;;;12.60;;
7813;SDS011;3952;48.364;16.022;2023-05-16T13:50:19;13.27;;;12.37;;
7813;SDS011;3952;48.364;16.022;2023-05-16T13:52:46;13.67;;;12.50;;
7813;SDS011;3952;48.364;16.022;2023-05-16T13:55:14;13.37;;;12.40;;
7813;SDS011;3952;48.364;16.022;2023-05-16T13:57:41;13.10;;;12.20;;
7813;SDS011;3952;48.364;16.022;2023-05-16T14:00:10;12.23;;;11.50;;
7813;SDS011;3952;48.364;16.022;2023-05-16T14:02:38;12.33;;;11.53;;
7813;SDS011;3952;48.364;16.022;2023-05-16T14:05:06;12.73;;;11.93;;
7813;SDS011;3952;48.364;16.022;2023-05-16T14:07:34;12.67;;;11.77;;
7813;SDS011;3952;48.364;16.022;2023-05-16T14:10:01;13.20;;;12.30;;
7813;SDS011;3952;48.364;16.022;2023-05-16T14:12:30;11.80;;;11.10;;
7813;SDS011;3952;48.364;16.022;2023-05-16T14:14:58;12.17;;;11.47;;
7813;SDS011;3952;48.364;16.022;2023-05-16T14:17:26;13.30;;;12.50;;
7813;SDS011;3952;48.364;16.022;2023-05-16T14:19:54;12.97;;;12.07;;
7813;SDS011;3952;48.364;16.022;2023-05-16T14:22:21;13.37;;;12.57;;
7813;SDS011;3952;48.364;16.022;2023-05-16T14:24:48;13.40;;;12.50;;
7813;SDS011;3952;48.364;16.022;2023-05-16T14:27:15;12.97;;;12.03;;
7813;SDS011;3952;48.364;16.022;2023-05-16T14:29:43;13.17;;;12.33;;
7813;SDS011;3952;48.364;16.022;2023-05-16T14:32:11;13.50;;;12.60;;
7813;SDS011;3952;48.364;16.022;2023-05-16T14:34:40;13.90;;;12.93;;
7813;SDS011;3952;48.364;16.022;2023-05-16T14:37:07;13.33;;;12.43;;
7813;SDS011;3952;48.364;16.022;2023-05-16T14:39:35;14.20;;;13.03;;
7813;SDS011;3952;48.364;16.022;2023-05-16T14:42:02;13.40;;;12.50;;
7813;SDS011;3952;48.364;16.022;2023-05-16T14:44:30;13.60;;;12.63;;
7813;SDS011;3952;48.364;16.022;2023-05-16T14:46:57;13.20;;;12.17;;
7813;SDS011;3952;48.364;16.022;2023-05-16T14:49:24;13.40;;;12.30;;
7813;SDS011;3952;48.364;16.022;2023-05-16T14:51:53;13.43;;;12.53;;
7813;SDS011;3952;48.364;16.022;2023-05-16T14:54:20;13.27;;;12.07;;
7813;SDS011;3952;48.364;16.022;2023-05-16T14:56:48;14.47;;;13.33;;